Time;durP1;ratioP1;P1;durP2;ratioP2;P2;SDS_P1;SDS_P2;PMS_P1;PMS_P2;Temp;Humidity;BMP_temperature;BMP_pressure;BME280_temperature;BME280_humidity;BME280_pressure;Samples;Min_cycle;Max_cycle;Signal;HPM_P1;HPM_P2
2023/12/04 00:01:48;;;;;;;37.00;20.20;;;-11.00;99.90;;;;;;5057711;28;20209;-75
2023/12/04 00:04:13;;;;;;;37.33;19.60;;;-11.00;99.90;;;;;;5058640;28;20164;-75
2023/12/04 00:06:41;;;;;;;36.27;20.00;;;-11.10;99.90;;;;;;5058519;28;21046;-75
2023/12/04 00:09:06;;;;;;;36.40;18.37;;;-11.10;99.90;;;;;;5058363;28;20735;-76
2023/12/04 00:11:32;;;;;;;35.90;19.07;;;-11.00;99.90;;;;;;5059312;28;20287;-75
2023/12/04 00:13:58;;;;;;;31.30;18.00;;;-11.00;99.90;;;;;;5059075;28;20027;-75
2023/12/04 00:16:24;;;;;;;33.37;17.50;;;-11.00;99.90;;;;;;5058787;28;20101;-75
2023/12/04 00:18:49;;;;;;;26.93;16.00;;;-11.00;99.90;;;;;;5058051;28;20266;-75
2023/12/04 00:21:15;;;;;;;27.17;16.63;;;-11.00;99.90;;;;;;5057924;28;20028;-76
2023/12/04 00:23:40;;;;;;;29.83;16.37;;;-10.90;99.90;;;;;;5057420;28;20392;-75
2023/12/04 00:26:06;;;;;;;24.37;14.83;;;-10.90;99.90;;;;;;5057400;28;20107;-76
2023/12/04 00:28:32;;;;;;;25.77;15.47;;;-10.90;99.90;;;;;;5058491;28;20188;-76
2023/12/04 00:30:57;;;;;;;28.50;16.20;;;-10.90;99.90;;;;;;5056907;28;20028;-75
2023/12/04 00:33:23;;;;;;;27.60;15.83;;;-10.90;99.90;;;;;;5057494;28;20031;-76
2023/12/04 00:35:48;;;;;;;26.20;16.10;;;-10.90;99.90;;;;;;5057651;28;20031;-75
2023/12/04 00:38:14;;;;;;;28.97;16.37;;;-10.80;99.90;;;;;;5057824;28;20109;-75
2023/12/04 00:40:40;;;;;;;32.10;16.73;;;-10.80;99.90;;;;;;5057532;28;20035;-75
2023/12/04 00:43:05;;;;;;;31.37;15.57;;;-10.80;99.90;;;;;;5057323;28;20095;-75
2023/12/04 00:45:31;;;;;;;27.70;16.40;;;-10.80;99.90;;;;;;5056770;28;20103;-76
2023/12/04 00:47:56;;;;;;;28.70;16.17;;;-10.80;99.90;;;;;;5057200;28;20029;-76
2023/12/04 00:50:22;;;;;;;29.40;15.93;;;-10.90;99.90;;;;;;5057464;28;21000;-75
2023/12/04 00:52:48;;;;;;;30.20;15.57;;;-10.90;99.90;;;;;;5058036;28;20079;-75
2023/12/04 00:55:13;;;;;;;38.00;15.63;;;-10.80;99.90;;;;;;5058158;28;20394;-76
2023/12/04 00:57:39;;;;;;;29.87;16.23;;;-10.80;99.90;;;;;;5057620;28;20040;-75
2023/12/04 01:00:05;;;;;;;26.73;15.37;;;-10.80;99.90;;;;;;5057434;28;20031;-76
2023/12/04 01:02:31;;;;;;;28.63;15.50;;;-10.80;99.90;;;;;;5057718;28;20039;-75
2023/12/04 01:04:56;;;;;;;24.70;14.67;;;-10.70;99.90;;;;;;5056982;28;21250;-76
2023/12/04 01:07:22;;;;;;;27.30;14.87;;;-10.70;99.90;;;;;;5057124;28;20074;-75
2023/12/04 01:09:48;;;;;;;28.63;15.93;;;-10.70;99.90;;;;;;5057796;28;20028;-76
2023/12/04 01:12:13;;;;;;;23.57;14.33;;;-10.70;99.90;;;;;;5057097;28;20083;-75
2023/12/04 01:14:39;;;;;;;22.53;13.70;;;-10.70;99.90;;;;;;5056041;28;20048;-75
2023/12/04 01:17:04;;;;;;;28.63;16.87;;;-10.70;99.90;;;;;;5056552;28;20059;-75
2023/12/04 01:19:30;;;;;;;28.43;14.87;;;-10.70;99.90;;;;;;5058112;28;20029;-75
2023/12/04 01:21:56;;;;;;;26.37;14.53;;;-10.80;99.90;;;;;;5056633;28;20495;-76
2023/12/04 01:24:21;;;;;;;27.63;14.73;;;-10.80;99.90;;;;;;5057419;28;20020;-75
2023/12/04 01:26:47;;;;;;;26.07;14.70;;;-10.80;99.90;;;;;;5056833;28;20462;-76
2023/12/04 01:29:12;;;;;;;29.23;16.17;;;-10.90;99.90;;;;;;5057598;28;20024;-75
2023/12/04 01:31:38;;;;;;;28.30;14.97;;;-10.90;99.90;;;;;;5056679;28;20098;-75
2023/12/04 01:34:03;;;;;;;21.87;13.10;;;-10.80;99.90;;;;;;5060335;28;20024;-76
2023/12/04 01:36:29;;;;;;;24.90;13.47;;;-10.80;99.90;;;;;;5059789;28;20111;-75
2023/12/04 01:38:54;;;;;;;25.37;14.97;;;-10.80;99.90;;;;;;5060918;28;20329;-75
2023/12/04 01:41:20;;;;;;;23.90;13.20;;;-10.90;99.90;;;;;;5061008;28;20033;-76
2023/12/04 01:43:46;;;;;;;27.17;15.53;;;-10.90;99.90;;;;;;5059464;28;20071;-76
2023/12/04 01:46:14;;;;;;;26.20;15.43;;;-10.80;99.90;;;;;;5059848;28;20769;-76
2023/12/04 01:48:40;;;;;;;26.17;15.07;;;-10.90;99.90;;;;;;5058528;28;21475;-75
2023/12/04 01:51:09;;;;;;;30.37;15.63;;;-10.90;99.90;;;;;;5059172;28;20373;-75
2023/12/04 01:53:38;;;;;;;20.53;13.33;;;-10.90;99.90;;;;;;5060441;28;20095;-75
2023/12/04 01:56:05;;;;;;;22.87;13.20;;;-11.00;99.90;;;;;;5059793;28;20313;-76
2023/12/04 01:58:31;;;;;;;28.90;14.20;;;-10.90;99.90;;;;;;5060376;28;20269;-75
2023/12/04 02:00:57;;;;;;;24.73;13.37;;;-10.90;99.90;;;;;;5061302;28;20370;-75
2023/12/04 02:03:23;;;;;;;26.40;13.47;;;-10.90;99.90;;;;;;5060164;28;20270;-75
2023/12/04 02:05:50;;;;;;;25.37;13.53;;;-11.00;99.90;;;;;;5059370;28;20115;-76
2023/12/04 02:08:16;;;;;;;25.70;13.27;;;-11.00;99.90;;;;;;5060119;28;20263;-76
2023/12/04 02:10:43;;;;;;;24.13;13.80;;;-11.00;99.90;;;;;;5059493;28;21515;-75
2023/12/04 02:13:09;;;;;;;25.03;13.67;;;-11.00;99.90;;;;;;5059008;28;20164;-75
2023/12/04 02:15:35;;;;;;;24.87;12.97;;;-10.90;99.90;;;;;;5059020;28;20916;-76
2023/12/04 02:18:02;;;;;;;25.23;13.60;;;-10.80;99.90;;;;;;5059721;28;20267;-75
2023/12/04 02:20:32;;;;;;;26.53;13.43;;;-10.80;99.90;;;;;;5060140;28;20036;-75
2023/12/04 02:22:57;;;;;;;23.73;13.03;;;-10.70;99.90;;;;;;5059778;28;20283;-75
2023/12/04 02:25:23;;;;;;;24.73;14.43;;;-10.70;99.90;;;;;;5059247;28;20281;-76
2023/12/04 02:27:52;;;;;;;26.03;14.43;;;-10.70;99.90;;;;;;5059927;28;20055;-75
2023/12/04 02:30:22;;;;;;;25.23;13.93;;;-10.70;99.90;;;;;;5058754;28;20067;-75
2023/12/04 02:32:48;;;;;;;22.90;14.33;;;-10.80;99.90;;;;;;5059460;28;20291;-76
2023/12/04 02:35:16;;;;;;;26.20;13.77;;;-10.90;99.90;;;;;;5058801;28;20278;-75
2023/12/04 02:37:42;;;;;;;23.93;13.33;;;-10.90;99.90;;;;;;5059276;28;20270;-75
2023/12/04 02:40:10;;;;;;;22.27;13.13;;;-10.90;99.90;;;;;;5059103;28;20378;-75
2023/12/04 02:42:35;;;;;;;21.90;12.33;;;-10.90;99.90;;;;;;5059651;28;20313;-75
2023/12/04 02:45:01;;;;;;;24.07;13.03;;;-10.90;99.90;;;;;;5058382;28;20274;-75
2023/12/04 02:47:26;;;;;;;23.13;13.33;;;-11.00;99.90;;;;;;5058346;28;20060;-76
2023/12/04 02:49:53;;;;;;;28.33;14.03;;;-11.00;99.90;;;;;;5058277;28;20036;-76
2023/12/04 02:52:18;;;;;;;24.97;13.67;;;-11.00;99.90;;;;;;5058938;28;20032;-76
2023/12/04 02:54:44;;;;;;;25.50;13.00;;;-11.00;99.90;;;;;;5058724;28;20291;-75
2023/12/04 02:57:09;;;;;;;23.20;12.63;;;-11.10;99.90;;;;;;5058326;28;20024;-75
2023/12/04 02:59:35;;;;;;;27.17;13.40;;;-11.10;99.90;;;;;;5058232;28;20127;-76
2023/12/04 03:02:00;;;;;;;21.63;12.37;;;-11.10;99.90;;;;;;5058504;28;20679;-76
2023/12/04 03:04:28;;;;;;;25.53;14.20;;;-11.10;99.90;;;;;;5060080;28;20123;-76
2023/12/04 03:06:54;;;;;;;29.47;15.37;;;-11.20;99.90;;;;;;5060084;28;20028;-77
2023/12/04 03:09:19;;;;;;;27.13;15.23;;;-11.20;99.90;;;;;;5061214;28;20287;-76
2023/12/04 03:11:45;;;;;;;29.00;15.93;;;-11.30;99.90;;;;;;5061345;28;20518;-75
2023/12/04 03:14:10;;;;;;;28.13;14.70;;;-11.30;99.90;;;;;;5060433;28;20475;-75
2023/12/04 03:16:36;;;;;;;28.13;13.10;;;-11.30;99.90;;;;;;5057933;28;20031;-75
2023/12/04 03:19:01;;;;;;;25.73;13.73;;;-11.30;99.90;;;;;;5059005;28;20037;-76
2023/12/04 03:21:28;;;;;;;28.23;13.73;;;-11.30;99.90;;;;;;5058788;28;20021;-75
2023/12/04 03:23:54;;;;;;;28.10;15.30;;;-11.30;99.90;;;;;;5055699;28;20037;-75
2023/12/04 03:26:20;;;;;;;28.30;15.47;;;-11.30;99.90;;;;;;5057792;28;20271;-76
2023/12/04 03:28:45;;;;;;;28.73;14.87;;;-11.30;99.90;;;;;;5058969;28;20078;-76
2023/12/04 03:31:11;;;;;;;28.57;15.10;;;-11.30;99.90;;;;;;5056570;28;20047;-75
2023/12/04 03:33:36;;;;;;;26.50;14.00;;;-11.40;99.90;;;;;;5058848;28;20031;-75
2023/12/04 03:36:02;;;;;;;26.83;13.97;;;-11.40;99.90;;;;;;5058157;28;20154;-75
2023/12/04 03:38:28;;;;;;;31.20;15.13;;;-11.40;99.90;;;;;;5057866;28;20885;-75
2023/12/04 03:40:53;;;;;;;29.17;15.03;;;-11.40;99.90;;;;;;5058055;28;20029;-75
2023/12/04 03:43:19;;;;;;;29.23;15.60;;;-11.50;99.90;;;;;;5057584;28;20051;-75
2023/12/04 03:45:44;;;;;;;26.37;14.43;;;-11.50;99.90;;;;;;5057323;28;20504;-75
2023/12/04 03:48:10;;;;;;;28.20;14.23;;;-11.50;99.90;;;;;;5057114;28;20620;-75
2023/12/04 03:50:35;;;;;;;29.60;14.87;;;-11.60;99.90;;;;;;5058123;28;20024;-75
2023/12/04 03:53:01;;;;;;;27.73;14.23;;;-11.50;99.90;;;;;;5057791;28;20036;-75
2023/12/04 03:55:26;;;;;;;29.10;15.43;;;-11.50;99.90;;;;;;5056544;28;21375;-76
2023/12/04 03:57:53;;;;;;;27.70;15.33;;;-11.50;99.90;;;;;;5058736;28;20592;-75
2023/12/04 04:00:19;;;;;;;30.67;15.30;;;-11.50;99.90;;;;;;5057443;28;20121;-75
2023/12/04 04:02:44;;;;;;;27.93;14.37;;;-11.50;99.90;;;;;;5058139;28;20631;-75
2023/12/04 04:05:10;;;;;;;26.97;14.87;;;-11.40;99.90;;;;;;5056686;28;20328;-75
2023/12/04 04:07:36;;;;;;;26.90;14.97;;;-11.50;99.90;;;;;;5057680;28;20032;-76
2023/12/04 04:10:02;;;;;;;30.00;14.67;;;-11.50;99.90;;;;;;5055702;28;20028;-76
2023/12/04 04:12:27;;;;;;;27.80;15.47;;;-11.60;99.90;;;;;;5057480;28;20066;-75
2023/12/04 04:14:53;;;;;;;27.83;15.33;;;-11.60;99.90;;;;;;5057714;28;20345;-75
2023/12/04 04:17:19;;;;;;;27.23;14.27;;;-11.70;99.90;;;;;;5056903;28;20060;-75
2023/12/04 04:19:44;;;;;;;27.17;14.40;;;-11.70;99.90;;;;;;5056026;28;20059;-75
2023/12/04 04:22:10;;;;;;;26.77;14.40;;;-11.80;99.90;;;;;;5058219;28;20395;-75
2023/12/04 04:24:36;;;;;;;26.27;14.20;;;-11.80;99.90;;;;;;5055276;28;20697;-75
2023/12/04 04:27:01;;;;;;;28.37;15.33;;;-11.80;99.90;;;;;;5055216;28;20278;-76
2023/12/04 04:29:27;;;;;;;33.90;17.73;;;-11.80;99.90;;;;;;5056090;28;21391;-76
2023/12/04 04:31:53;;;;;;;28.57;15.57;;;-11.70;99.90;;;;;;5056601;28;20643;-75
2023/12/04 04:34:20;;;;;;;26.90;14.33;;;-11.70;99.90;;;;;;5056855;28;20036;-75
2023/12/04 04:36:46;;;;;;;31.30;15.33;;;-11.70;99.90;;;;;;5055338;28;20029;-76
2023/12/04 04:39:13;;;;;;;28.70;15.30;;;-11.70;99.90;;;;;;5056483;28;20282;-75
2023/12/04 04:41:39;;;;;;;28.00;14.80;;;-11.70;99.90;;;;;;5057125;28;20035;-75
2023/12/04 04:44:05;;;;;;;27.43;15.30;;;-11.70;99.90;;;;;;5056889;28;20353;-75
2023/12/04 04:46:30;;;;;;;28.00;14.47;;;-11.70;99.90;;;;;;5055555;28;20281;-76
2023/12/04 04:48:56;;;;;;;29.97;15.00;;;-11.70;99.90;;;;;;5056775;28;20091;-76
2023/12/04 04:51:22;;;;;;;29.83;15.40;;;-11.70;99.90;;;;;;5056391;28;20382;-76
2023/12/04 04:53:48;;;;;;;24.03;13.17;;;-11.70;99.90;;;;;;5060121;28;20270;-76
2023/12/04 04:56:14;;;;;;;31.13;15.73;;;-11.70;99.90;;;;;;5057961;28;20025;-76
2023/12/04 04:58:40;;;;;;;24.57;13.40;;;-11.70;99.90;;;;;;5057204;28;20412;-77
2023/12/04 05:01:06;;;;;;;29.80;16.03;;;-11.70;99.90;;;;;;5057025;28;20787;-76
2023/12/04 05:03:31;;;;;;;26.40;14.67;;;-11.60;99.90;;;;;;5055651;28;20036;-76
2023/12/04 05:05:57;;;;;;;28.50;15.53;;;-11.60;99.90;;;;;;5056464;28;20032;-76
2023/12/04 05:08:22;;;;;;;31.60;15.63;;;-11.50;99.90;;;;;;5060329;28;20048;-76
2023/12/04 05:10:48;;;;;;;46.57;20.63;;;-11.50;99.90;;;;;;5060207;28;20060;-77
2023/12/04 05:13:13;;;;;;;34.70;17.23;;;-11.40;99.90;;;;;;5060394;28;20044;-75
2023/12/04 05:15:39;;;;;;;29.43;15.00;;;-11.40;99.90;;;;;;5060550;28;20744;-76
2023/12/04 05:18:05;;;;;;;23.30;14.13;;;-11.40;99.90;;;;;;5059633;28;20051;-76
2023/12/04 05:20:30;;;;;;;26.43;13.23;;;-11.40;99.90;;;;;;5061294;28;20097;-76
2023/12/04 05:22:57;;;;;;;27.13;13.83;;;-11.40;99.90;;;;;;5060419;28;20113;-76
2023/12/04 05:25:23;;;;;;;25.53;13.53;;;-11.40;99.90;;;;;;5059940;28;20020;-76
2023/12/04 05:27:48;;;;;;;32.90;18.20;;;-11.40;99.90;;;;;;5060275;28;20255;-76
2023/12/04 05:30:14;;;;;;;30.57;16.07;;;-11.40;99.90;;;;;;5059311;28;20080;-76
2023/12/04 05:32:40;;;;;;;25.00;14.47;;;-11.50;99.90;;;;;;5058906;28;20028;-76
2023/12/04 05:35:06;;;;;;;24.40;14.83;;;-11.50;99.90;;;;;;5059241;28;20070;-76
2023/12/04 05:37:32;;;;;;;26.53;13.53;;;-11.50;99.90;;;;;;5058318;28;20028;-76
2023/12/04 05:39:57;;;;;;;26.20;14.20;;;-11.50;99.90;;;;;;5059296;28;20032;-76
2023/12/04 05:42:23;;;;;;;31.07;15.13;;;-11.50;99.90;;;;;;5060164;28;20267;-76
2023/12/04 05:44:48;;;;;;;29.53;14.93;;;-11.50;99.90;;;;;;5056414;28;20507;-77
2023/12/04 05:47:14;;;;;;;26.23;15.57;;;-11.50;99.90;;;;;;5058590;28;20131;-76
2023/12/04 05:49:40;;;;;;;27.13;14.80;;;-11.50;99.90;;;;;;5059147;28;20032;-76
2023/12/04 05:52:06;;;;;;;26.93;14.40;;;-11.50;99.90;;;;;;5058247;28;20033;-77
2023/12/04 05:54:32;;;;;;;30.43;14.83;;;-11.50;99.90;;;;;;5060438;28;20028;-77
2023/12/04 05:56:58;;;;;;;27.37;14.40;;;-11.50;99.90;;;;;;5058588;28;20313;-76
2023/12/04 05:59:23;;;;;;;29.13;14.67;;;-11.50;99.90;;;;;;5060094;28;20025;-77
2023/12/04 06:01:49;;;;;;;25.50;13.67;;;-11.50;99.90;;;;;;5059120;28;20032;-77
2023/12/04 06:04:14;;;;;;;28.20;14.27;;;-11.50;99.90;;;;;;5059809;28;20066;-77
2023/12/04 06:06:40;;;;;;;23.70;13.27;;;-11.50;99.90;;;;;;5059807;28;20121;-77
2023/12/04 06:09:06;;;;;;;29.40;15.50;;;-11.50;99.90;;;;;;5052701;28;20038;-77
2023/12/04 06:11:31;;;;;;;29.73;15.87;;;-11.50;99.90;;;;;;5047194;28;20024;-77
2023/12/04 06:13:57;;;;;;;28.10;16.57;;;-11.50;99.90;;;;;;5058173;28;20114;-77
2023/12/04 06:16:22;;;;;;;29.57;15.87;;;-11.50;99.90;;;;;;5059105;28;20507;-77
2023/12/04 06:18:48;;;;;;;32.10;15.60;;;-11.50;99.90;;;;;;5058724;28;20047;-77
2023/12/04 06:21:14;;;;;;;26.23;13.97;;;-11.40;99.90;;;;;;5057845;28;20044;-76
2023/12/04 06:23:40;;;;;;;27.17;13.93;;;-11.40;99.90;;;;;;5058209;28;20032;-76
2023/12/04 06:26:06;;;;;;;28.60;14.33;;;-11.40;99.90;;;;;;5057956;28;20506;-76
2023/12/04 06:28:32;;;;;;;26.23;13.93;;;-11.40;99.90;;;;;;5055527;28;20035;-76
2023/12/04 06:30:58;;;;;;;27.60;14.57;;;-11.30;99.90;;;;;;5057945;28;20665;-76
2023/12/04 06:33:24;;;;;;;26.57;14.40;;;-11.30;99.90;;;;;;5057483;28;20271;-76
2023/12/04 06:35:50;;;;;;;28.23;15.17;;;-11.30;99.90;;;;;;5055642;28;20301;-77
2023/12/04 06:38:17;;;;;;;27.37;14.87;;;-11.30;99.90;;;;;;5056454;28;20263;-76
2023/12/04 06:40:43;;;;;;;25.73;13.73;;;-11.30;99.90;;;;;;5058405;28;20036;-76
2023/12/04 06:43:09;;;;;;;26.67;14.60;;;-11.30;99.90;;;;;;5057387;28;20302;-76
2023/12/04 06:45:35;;;;;;;26.47;14.90;;;-11.30;99.90;;;;;;5055952;28;20036;-76
2023/12/04 06:48:01;;;;;;;29.20;14.43;;;-11.30;99.90;;;;;;5057502;28;20028;-76
2023/12/04 06:50:27;;;;;;;28.77;14.80;;;-11.30;99.90;;;;;;5057442;28;20626;-76
2023/12/04 06:52:52;;;;;;;30.73;14.90;;;-11.20;99.90;;;;;;5056308;28;20059;-76
2023/12/04 06:55:18;;;;;;;29.13;14.83;;;-11.30;99.90;;;;;;5057501;28;20020;-76
2023/12/04 06:57:44;;;;;;;25.13;14.60;;;-11.30;99.90;;;;;;5056778;28;20111;-77
2023/12/04 07:00:14;;;;;;;27.33;15.03;;;-11.20;99.90;;;;;;5059041;28;20032;-76
2023/12/04 07:02:40;;;;;;;28.80;14.70;;;-11.20;99.90;;;;;;5055712;28;20040;-74
2023/12/04 07:05:06;;;;;;;31.33;15.70;;;-11.20;99.90;;;;;;5056918;28;20286;-73
2023/12/04 07:07:32;;;;;;;26.10;14.53;;;-11.20;99.90;;;;;;5055401;28;20029;-76
2023/12/04 07:09:58;;;;;;;32.30;15.43;;;-11.20;99.90;;;;;;5055997;28;20262;-76
2023/12/04 07:12:23;;;;;;;30.30;15.80;;;-11.30;99.90;;;;;;5057417;28;20038;-76
2023/12/04 07:14:49;;;;;;;27.87;15.20;;;-11.20;99.90;;;;;;5057729;28;20259;-76
2023/12/04 07:17:15;;;;;;;27.97;13.97;;;-11.20;99.90;;;;;;5056406;28;20427;-81
2023/12/04 07:19:42;;;;;;;31.00;16.07;;;-11.20;99.90;;;;;;5057349;28;20031;-74
2023/12/04 07:22:07;;;;;;;30.10;16.37;;;-11.10;99.90;;;;;;5058066;28;20290;-75
2023/12/04 07:24:33;;;;;;;35.97;19.20;;;-11.10;99.90;;;;;;5055308;28;20777;-75
2023/12/04 07:26:59;;;;;;;37.03;19.70;;;-11.00;99.90;;;;;;5055139;28;20107;-76
2023/12/04 07:29:24;;;;;;;33.83;18.70;;;-10.90;99.90;;;;;;5054177;28;20032;-76
2023/12/04 07:31:51;;;;;;;34.43;18.70;;;-10.90;99.90;;;;;;5055408;28;20043;-75
2023/12/04 07:34:16;;;;;;;35.53;19.80;;;-10.80;99.90;;;;;;5054739;28;20090;-75
2023/12/04 07:36:44;;;;;;;39.67;21.30;;;-10.80;99.90;;;;;;5055185;28;20385;-75
2023/12/04 07:39:10;;;;;;;31.57;19.17;;;-10.80;99.90;;;;;;5056895;28;20033;-75
2023/12/04 07:41:36;;;;;;;35.10;18.17;;;-10.80;99.90;;;;;;5055745;28;20394;-75
2023/12/04 07:44:01;;;;;;;35.13;18.57;;;-10.70;99.90;;;;;;5056018;28;20319;-75
2023/12/04 07:46:27;;;;;;;37.33;18.20;;;-10.70;99.90;;;;;;5056022;28;20039;-75
2023/12/04 07:48:53;;;;;;;35.17;18.13;;;-10.60;99.90;;;;;;5057160;28;20027;-76
2023/12/04 07:51:18;;;;;;;33.33;17.20;;;-10.60;99.90;;;;;;5055333;28;20028;-75
2023/12/04 07:53:44;;;;;;;32.00;15.67;;;-10.60;99.90;;;;;;5056234;28;20029;-75
2023/12/04 07:56:11;;;;;;;30.73;15.70;;;-10.70;99.90;;;;;;5056361;28;20162;-75
2023/12/04 07:58:36;;;;;;;34.73;16.57;;;-10.70;99.90;;;;;;5054676;28;20035;-75
2023/12/04 08:01:02;;;;;;;29.50;16.30;;;-10.80;99.90;;;;;;5055310;28;20259;-76
2023/12/04 08:03:28;;;;;;;29.50;15.87;;;-10.80;99.90;;;;;;5055625;28;20028;-76
2023/12/04 08:05:54;;;;;;;35.17;18.23;;;-10.80;99.90;;;;;;5055022;28;20103;-77
2023/12/04 08:08:19;;;;;;;32.43;16.93;;;-10.70;99.90;;;;;;5054681;28;20114;-76
2023/12/04 08:10:45;;;;;;;29.40;15.97;;;-10.60;99.90;;;;;;5054842;28;20071;-76
2023/12/04 08:13:10;;;;;;;31.50;16.33;;;-10.50;99.90;;;;;;5054196;28;20119;-80
2023/12/04 08:15:36;;;;;;;34.73;18.27;;;-10.40;99.90;;;;;;5054575;28;20123;-76
2023/12/04 08:18:02;;;;;;;32.97;18.40;;;-10.40;99.90;;;;;;5055302;28;20136;-75
2023/12/04 08:20:28;;;;;;;32.03;17.13;;;-10.20;99.90;;;;;;5046749;28;20073;-76
2023/12/04 08:22:54;;;;;;;38.33;19.37;;;-10.10;99.90;;;;;;5046833;28;20819;-80
2023/12/04 08:25:20;;;;;;;35.10;18.43;;;-10.00;99.90;;;;;;5050141;28;20105;-76
2023/12/04 08:27:46;;;;;;;34.03;18.53;;;-9.90;99.90;;;;;;5056752;28;20733;-84
2023/12/04 08:30:11;;;;;;;40.83;20.60;;;-9.80;99.90;;;;;;5054601;28;20021;-76
2023/12/04 08:32:37;;;;;;;41.33;21.33;;;-9.70;99.90;;;;;;5054572;28;20479;-76
2023/12/04 08:35:03;;;;;;;38.73;21.10;;;-9.60;99.90;;;;;;5056421;28;20542;-76
2023/12/04 08:37:30;;;;;;;43.67;21.63;;;-9.60;99.90;;;;;;5055851;28;20033;-75
2023/12/04 08:39:55;;;;;;;36.13;19.87;;;-9.50;99.90;;;;;;5055101;28;20266;-75
2023/12/04 08:42:21;;;;;;;36.87;21.07;;;-9.40;99.90;;;;;;5057725;28;20745;-75
2023/12/04 08:44:47;;;;;;;47.20;22.30;;;-9.40;99.90;;;;;;5059141;28;20188;-75
2023/12/04 08:47:13;;;;;;;49.73;24.10;;;-9.40;99.90;;;;;;5059799;28;20036;-74
2023/12/04 08:49:40;;;;;;;44.10;22.60;;;-9.30;99.90;;;;;;5059823;28;20259;-75
2023/12/04 08:52:06;;;;;;;45.60;22.50;;;-9.30;99.90;;;;;;5059285;28;20161;-75
2023/12/04 08:54:32;;;;;;;48.27;23.47;;;-9.30;99.90;;;;;;5058511;28;20259;-75
2023/12/04 08:56:57;;;;;;;43.07;22.17;;;-9.20;99.90;;;;;;5059486;28;20902;-75
2023/12/04 08:59:23;;;;;;;40.70;21.33;;;-9.00;99.90;;;;;;5058277;28;20048;-74
2023/12/04 09:01:48;;;;;;;41.23;21.70;;;-8.90;99.90;;;;;;5058935;28;20119;-75
2023/12/04 09:04:14;;;;;;;37.37;19.47;;;-8.90;99.90;;;;;;5059686;28;20481;-75
2023/12/04 09:06:39;;;;;;;41.63;22.20;;;-8.80;99.90;;;;;;5058581;28;20025;-76
2023/12/04 09:09:05;;;;;;;44.30;22.90;;;-8.80;99.90;;;;;;5058811;28;20845;-75
2023/12/04 09:11:30;;;;;;;43.03;22.47;;;-8.80;99.90;;;;;;5059974;28;20032;-75
2023/12/04 09:13:56;;;;;;;39.77;21.30;;;-8.70;99.90;;;;;;5058810;28;20028;-75
2023/12/04 09:16:23;;;;;;;37.00;20.70;;;-8.60;99.90;;;;;;5057970;28;20035;-76
2023/12/04 09:18:49;;;;;;;38.70;19.93;;;-8.50;99.90;;;;;;5058649;28;20036;-73
2023/12/04 09:21:14;;;;;;;39.37;20.90;;;-8.50;99.90;;;;;;5058742;28;21166;-73
2023/12/04 09:23:40;;;;;;;34.90;19.07;;;-8.40;99.90;;;;;;5058786;28;20032;-73
2023/12/04 09:26:05;;;;;;;43.50;22.67;;;-8.20;99.90;;;;;;5057473;28;20431;-74
2023/12/04 09:28:31;;;;;;;38.70;20.80;;;-8.20;99.90;;;;;;5057644;28;20883;-74
2023/12/04 09:30:56;;;;;;;38.10;20.37;;;-8.10;99.90;;;;;;5058847;28;20055;-74
2023/12/04 09:33:22;;;;;;;40.40;21.83;;;-8.10;99.90;;;;;;5059094;28;20123;-74
2023/12/04 09:35:48;;;;;;;36.70;20.40;;;-8.00;99.90;;;;;;5058500;28;20094;-74
2023/12/04 09:38:13;;;;;;;36.80;20.20;;;-8.00;99.90;;;;;;5058946;28;20478;-74
2023/12/04 09:40:39;;;;;;;37.83;19.93;;;-7.90;99.90;;;;;;5058287;28;20028;-74
2023/12/04 09:43:06;;;;;;;37.17;20.60;;;-7.80;99.90;;;;;;5058576;28;20024;-74
2023/12/04 09:45:33;;;;;;;35.77;19.23;;;-7.80;99.90;;;;;;5058388;28;20024;-74
2023/12/04 09:47:59;;;;;;;38.47;20.20;;;-7.80;99.90;;;;;;5058299;28;20286;-74
2023/12/04 09:50:25;;;;;;;36.03;19.70;;;-7.80;99.90;;;;;;5058728;28;20780;-74
2023/12/04 09:52:51;;;;;;;38.40;20.47;;;-7.70;99.90;;;;;;5057857;28;20290;-75
2023/12/04 09:55:17;;;;;;;38.13;21.13;;;-7.60;99.90;;;;;;5056546;28;20032;-74
2023/12/04 09:57:45;;;;;;;38.03;19.13;;;-7.50;99.90;;;;;;5056530;28;20263;-74
2023/12/04 10:00:12;;;;;;;37.30;19.03;;;-7.50;99.90;;;;;;5058903;28;20115;-74
2023/12/04 10:02:39;;;;;;;39.57;20.97;;;-7.40;99.90;;;;;;5059323;28;20274;-74
2023/12/04 10:05:06;;;;;;;36.13;20.30;;;-7.40;99.90;;;;;;5059184;28;20262;-74
2023/12/04 10:07:31;;;;;;;38.13;20.57;;;-7.40;99.90;;;;;;5058103;28;20271;-74
2023/12/04 10:09:57;;;;;;;39.53;20.93;;;-7.40;99.90;;;;;;5058596;28;20324;-74
2023/12/04 10:12:22;;;;;;;35.97;20.47;;;-7.30;99.90;;;;;;5058165;28;20033;-74
2023/12/04 10:15:11;;;;;;;44.13;25.40;;;-7.30;99.90;;;;;;5056552;28;20024;-74
2023/12/04 10:17:41;;;;;;;37.57;20.03;;;-7.20;99.90;;;;;;5056199;28;20032;-74
2023/12/04 10:20:21;;;;;;;38.50;21.83;;;-7.20;99.90;;;;;;5042551;28;20257;-74
2023/12/04 10:22:57;;;;;;;38.73;21.93;;;-7.10;99.90;;;;;;5048531;28;20929;-74
2023/12/04 10:25:26;;;;;;;37.93;22.20;;;-7.10;99.90;;;;;;5048466;28;20755;-74
2023/12/04 10:27:52;;;;;;;36.30;20.63;;;-7.00;99.90;;;;;;5048152;28;20795;-74
2023/12/04 10:30:28;;;;;;;37.00;19.97;;;-6.90;99.90;;;;;;5048549;28;20036;-75
2023/12/04 10:32:55;;;;;;;39.57;21.03;;;-6.80;99.90;;;;;;5048162;28;20332;-74
2023/12/04 10:35:22;;;;;;;42.17;21.60;;;-6.80;99.90;;;;;;5048714;28;20349;-74
2023/12/04 10:37:49;;;;;;;39.10;22.23;;;-6.80;99.90;;;;;;5045647;28;20352;-74
2023/12/04 10:40:23;;;;;;;39.83;21.27;;;-6.70;99.90;;;;;;5049717;28;20032;-74
2023/12/04 10:42:48;;;;;;;40.50;20.87;;;-6.60;99.90;;;;;;5055898;28;20155;-74
2023/12/04 10:45:14;;;;;;;36.00;21.50;;;-6.50;99.90;;;;;;5056503;28;20531;-74
2023/12/04 10:47:39;;;;;;;42.67;21.50;;;-6.30;99.90;;;;;;5056563;28;20801;-74
2023/12/04 10:50:07;;;;;;;40.60;21.73;;;-6.30;99.90;;;;;;5057005;28;20028;-74
2023/12/04 10:52:35;;;;;;;37.00;20.80;;;-6.20;99.90;;;;;;5057559;28;20110;-74
2023/12/04 10:55:01;;;;;;;42.90;23.67;;;-6.20;99.90;;;;;;5055770;28;20035;-74
2023/12/04 10:57:31;;;;;;;40.63;22.40;;;-6.10;99.90;;;;;;5056898;28;20305;-74
2023/12/04 11:00:04;;;;;;;41.70;23.83;;;-6.10;99.90;;;;;;5056574;28;20028;-74
2023/12/04 11:02:33;;;;;;;35.90;20.67;;;-6.10;99.90;;;;;;5056487;28;20097;-74
2023/12/04 11:05:09;;;;;;;40.33;22.70;;;-6.10;99.90;;;;;;5055453;28;20024;-74
2023/12/04 11:07:36;;;;;;;38.37;21.33;;;-6.10;99.90;;;;;;5057864;28;20399;-74
2023/12/04 11:10:02;;;;;;;40.33;22.47;;;-6.20;99.90;;;;;;5058319;28;20031;-74
2023/12/04 11:12:31;;;;;;;35.23;21.30;;;-6.20;99.90;;;;;;5056379;28;21361;-74
2023/12/04 11:15:00;;;;;;;40.50;22.77;;;-6.20;99.90;;;;;;5056102;28;20037;-74
2023/12/04 11:17:34;;;;;;;36.53;21.53;;;-6.10;99.90;;;;;;5057599;28;20027;-74
2023/12/04 11:20:07;;;;;;;39.27;21.03;;;-6.10;99.90;;;;;;5057630;28;20333;-74
2023/12/04 11:22:35;;;;;;;37.93;22.63;;;-6.10;99.90;;;;;;5056426;28;20068;-76
2023/12/04 11:25:05;;;;;;;33.93;20.67;;;-6.20;99.90;;;;;;5055624;28;20364;-74
2023/12/04 11:27:31;;;;;;;34.57;20.27;;;-6.20;99.90;;;;;;5053889;28;20028;-74
2023/12/04 11:29:58;;;;;;;35.50;21.00;;;-6.10;99.90;;;;;;5056464;28;20495;-74
2023/12/04 11:32:27;;;;;;;38.00;22.03;;;-6.10;99.90;;;;;;5057202;28;20078;-74
2023/12/04 11:34:58;;;;;;;39.93;21.47;;;-6.10;99.90;;;;;;5054776;28;20024;-74
2023/12/04 11:37:24;;;;;;;40.00;22.00;;;-6.10;99.90;;;;;;5056589;28;20028;-74
2023/12/04 11:39:50;;;;;;;41.27;24.43;;;-6.00;99.90;;;;;;5048224;28;20075;-74
2023/12/04 11:42:21;;;;;;;40.33;21.60;;;-6.10;99.90;;;;;;5046842;28;20060;-74
2023/12/04 11:44:56;;;;;;;42.97;22.20;;;-6.00;99.90;;;;;;5045515;28;20040;-74
2023/12/04 11:47:22;;;;;;;36.03;21.67;;;-6.00;99.90;;;;;;5046047;28;20043;-74
2023/12/04 11:49:48;;;;;;;38.17;21.43;;;-5.90;99.90;;;;;;5045105;28;20166;-74
2023/12/04 11:52:13;;;;;;;40.23;22.50;;;-5.90;99.90;;;;;;5047130;28;20040;-74
2023/12/04 11:54:59;;;;;;;38.60;21.17;;;-5.80;99.90;;;;;;5045956;28;20909;-74
2023/12/04 11:57:26;;;;;;;40.65;23.92;;;-5.80;99.90;;;;;;5046536;28;20024;-74
2023/12/04 11:59:52;;;;;;;35.30;21.07;;;-5.80;99.90;;;;;;5045529;28;20182;-74
2023/12/04 12:02:18;;;;;;;40.13;22.73;;;-5.80;99.90;;;;;;5046735;28;20097;-74
2023/12/04 12:04:44;;;;;;;38.63;22.37;;;-5.80;99.90;;;;;;5045245;28;20032;-74
2023/12/04 12:07:11;;;;;;;37.17;22.10;;;-5.80;99.90;;;;;;5045484;28;20040;-74
2023/12/04 12:09:37;;;;;;;33.77;20.50;;;-5.80;99.90;;;;;;5047672;28;20032;-74
2023/12/04 12:12:04;;;;;;;38.13;21.73;;;-5.80;99.90;;;;;;5056871;28;20060;-74
2023/12/04 12:14:30;;;;;;;38.10;20.50;;;-5.70;99.90;;;;;;5056100;28;20024;-74
2023/12/04 12:16:58;;;;;;;37.87;21.13;;;-5.60;99.90;;;;;;5054785;28;20180;-74